CheckWX is a tool to help pilots better visualize weather data.  It is not intended as a substitute for an official pre-flight weather briefing.

09:10:47 UTC

ESPE METAR
Vidsel Air Base Airport
Vidsel, Sweden
Current

21 mins ago

ESPE 210850Z AUTO 29004KT 9999 FEW230/// 04/02 Q1010
Observed
Sep-21 @ 08:50 UTC
Wind
  • 290° at 4 KTS
Visibility
10,000+ meters
Flight Rules
VFR
Cloud Levels
  • Few at 23,000' AGL
Temperature
C / 39°F
Dewpoint
C / 36°F
Humidity
87%
Altimeter
29.82" Hg
Pressure
1009.92 hPa
Previous

51 mins ago

ESPE 210820Z AUTO 27003KT 250V320 9999 FEW220/// 03/02 Q1009
Observed
Sep-21 @ 08:20 UTC
Wind
  • 270° at 3 KTS
Visibility
10,000+ meters
Flight Rules
VFR
Cloud Levels
  • Few at 22,000' AGL
Temperature
C / 37°F
Dewpoint
C / 36°F
Humidity
93%
Altimeter
29.79" Hg
Pressure
1008.92 hPa
Previous

1 hour ago

ESPE 210750Z AUTO 28003KT 9999 NCD 02/01 Q1009
Observed
Sep-21 @ 07:50 UTC
Wind
  • 280° at 3 KTS
Visibility
10,000+ meters
Flight Rules
VFR
Cloud Levels
  • Clear skies
Temperature
C / 36°F
Dewpoint
C / 34°F
Humidity
93%
Altimeter
29.79" Hg
Pressure
1008.92 hPa